createdAt,value
2018-05-14T00:01:06.216Z,32.60
2018-05-14T00:03:33.750Z,26.93
2018-05-14T00:06:01.289Z,26.40
2018-05-14T00:08:28.806Z,27.00
2018-05-14T00:10:56.409Z,28.73
2018-05-14T00:13:23.934Z,23.00
2018-05-14T00:15:51.457Z,29.60
2018-05-14T00:18:19.016Z,21.20
2018-05-14T00:20:46.572Z,20.97
2018-05-14T00:23:14.166Z,23.07
2018-05-14T00:25:41.690Z,19.70
2018-05-14T00:28:09.221Z,22.13
2018-05-14T00:30:36.731Z,20.90
2018-05-14T00:33:04.318Z,21.13
2018-05-14T00:35:31.845Z,18.40
2018-05-14T00:38:00.005Z,20.10
2018-05-14T00:40:27.566Z,14.40
2018-05-14T00:42:55.073Z,18.83
2018-05-14T00:45:22.621Z,13.47
2018-05-14T00:47:50.930Z,13.03
2018-05-14T00:50:18.459Z,14.53
2018-05-14T00:52:46.766Z,14.87
2018-05-14T00:55:17.169Z,13.87
2018-05-14T00:57:45.456Z,15.43
2018-05-14T01:00:12.984Z,11.70
2018-05-14T01:02:40.513Z,9.53
2018-05-14T01:05:08.033Z,13.20
2018-05-14T01:07:35.586Z,10.60
2018-05-14T01:10:03.119Z,11.30
2018-05-14T01:12:30.696Z,9.37
2018-05-14T01:14:59.009Z,8.33
2018-05-14T01:17:26.518Z,8.63
2018-05-14T01:19:54.862Z,12.27
2018-05-14T01:22:22.374Z,9.90
2018-05-14T01:24:55.490Z,11.70
2018-05-14T01:27:35.537Z,8.50
2018-05-14T01:30:03.099Z,11.07
2018-05-14T01:32:30.631Z,10.03
2018-05-14T01:34:58.181Z,7.70
2018-05-14T01:37:26.490Z,8.93
2018-05-14T01:39:53.998Z,7.40
2018-05-14T01:42:21.505Z,6.67
2018-05-14T01:44:49.014Z,12.13
2018-05-14T01:47:16.634Z,13.03
2018-05-14T01:49:44.150Z,5.70
2018-05-14T01:52:12.417Z,11.93
2018-05-14T01:54:40.774Z,7.37
2018-05-14T01:57:08.328Z,6.10
2018-05-14T01:59:35.846Z,10.50
2018-05-14T02:02:03.406Z,8.87
2018-05-14T02:04:30.956Z,8.83
2018-05-14T02:06:58.528Z,9.43
2018-05-14T02:09:26.050Z,5.60
2018-05-14T02:11:54.329Z,5.17
2018-05-14T02:14:22.652Z,6.47
2018-05-14T02:16:50.181Z,6.17
2018-05-14T02:19:17.694Z,8.23
2018-05-14T02:21:45.237Z,10.23
2018-05-14T02:24:12.762Z,7.20
2018-05-14T02:26:40.269Z,9.43
2018-05-14T02:29:07.799Z,9.30
2018-05-14T02:31:35.309Z,7.50
2018-05-14T02:34:02.844Z,9.10
2018-05-14T02:36:30.420Z,8.20
2018-05-14T02:38:57.950Z,9.30
2018-05-14T02:41:25.473Z,10.47
2018-05-14T02:43:53.014Z,8.60
2018-05-14T02:46:21.277Z,8.73
2018-05-14T02:48:48.964Z,10.80
2018-05-14T02:51:16.495Z,7.50
2018-05-14T02:53:44.069Z,10.80
2018-05-14T02:56:12.339Z,9.60
2018-05-14T02:58:39.838Z,11.57
2018-05-14T03:01:07.363Z,12.80
2018-05-14T03:03:34.881Z,14.57
2018-05-14T03:06:02.474Z,10.17
2018-05-14T03:08:30.768Z,13.33
2018-05-14T03:10:58.282Z,13.40
2018-05-14T03:13:25.841Z,14.03
2018-05-14T03:15:53.993Z,14.20
2018-05-14T03:18:21.500Z,13.00
2018-05-14T03:20:49.793Z,10.73
2018-05-14T03:23:17.401Z,13.57
2018-05-14T03:25:44.948Z,13.93
2018-05-14T03:28:12.508Z,14.43
2018-05-14T03:30:40.024Z,18.67
2018-05-14T03:33:08.318Z,14.57
2018-05-14T03:35:35.821Z,11.37
2018-05-14T03:38:03.435Z,11.90
2018-05-14T03:40:30.962Z,9.90
2018-05-14T03:42:58.509Z,14.03
2018-05-14T03:45:26.021Z,12.43
2018-05-14T03:47:53.539Z,15.10
2018-05-14T03:50:21.094Z,12.27
2018-05-14T03:52:48.611Z,17.53
2018-05-14T03:55:16.149Z,15.03
2018-05-14T03:57:43.713Z,12.23
2018-05-14T04:00:23.070Z,12.13
2018-05-14T04:03:02.448Z,11.93
2018-05-14T04:05:42.747Z,14.43
2018-05-14T04:08:10.276Z,12.93
2018-05-14T04:10:38.532Z,13.90
2018-05-14T04:13:06.063Z,9.37
2018-05-14T04:15:33.581Z,12.50
2018-05-14T04:18:01.112Z,13.10
2018-05-14T04:20:28.634Z,12.47
2018-05-14T04:22:56.152Z,11.93
2018-05-14T04:25:23.670Z,11.10
2018-05-14T04:27:51.222Z,15.63
2018-05-14T04:30:18.781Z,13.60
2018-05-14T04:32:46.270Z,16.53
2018-05-14T04:35:15.505Z,15.20
2018-05-14T04:37:43.021Z,17.40
2018-05-14T04:40:10.537Z,13.77
2018-05-14T04:42:38.815Z,12.90
2018-05-14T04:45:06.338Z,15.33
2018-05-14T04:47:33.851Z,11.53
2018-05-14T04:50:01.383Z,11.60
2018-05-14T04:52:28.904Z,11.10
2018-05-14T04:54:57.194Z,11.17
2018-05-14T04:57:24.707Z,13.53
2018-05-14T04:59:52.229Z,9.73
2018-05-14T05:02:19.712Z,10.47
2018-05-14T05:04:47.233Z,9.00
2018-05-14T05:07:14.768Z,12.30
2018-05-14T05:09:42.304Z,11.73
2018-05-14T05:12:09.872Z,11.43
2018-05-14T05:14:37.410Z,9.47
2018-05-14T05:17:04.997Z,10.77
2018-05-14T05:19:33.329Z,10.10
2018-05-14T05:22:00.864Z,9.47
2018-05-14T05:24:28.373Z,10.10
2018-05-14T05:26:55.906Z,10.23
2018-05-14T05:29:23.454Z,7.53
2018-05-14T05:31:50.984Z,9.47
2018-05-14T05:34:18.524Z,9.70
2018-05-14T05:36:46.820Z,8.50
2018-05-14T05:39:14.326Z,8.00
2018-05-14T05:41:41.859Z,7.33
2018-05-14T05:44:09.386Z,7.40
2018-05-14T05:46:37.682Z,8.20
2018-05-14T05:49:05.270Z,12.30
2018-05-14T05:51:32.804Z,12.60
2018-05-14T05:54:00.402Z,15.23
2018-05-14T05:56:27.904Z,18.13
2018-05-14T05:58:55.466Z,15.67
2018-05-14T06:01:23.253Z,20.40
2018-05-14T06:03:50.564Z,14.07
2018-05-14T06:06:18.855Z,18.67
2018-05-14T06:08:47.145Z,16.63
2018-05-14T06:11:14.717Z,21.00
2018-05-14T06:13:42.237Z,18.47
2018-05-14T06:16:09.748Z,18.70
2018-05-14T06:18:37.283Z,19.57
2018-05-14T06:21:04.804Z,32.77
2018-05-14T06:23:32.368Z,25.67
2018-05-14T06:26:00.624Z,30.70
2018-05-14T06:28:28.167Z,28.03
2018-05-14T06:30:55.800Z,36.30
2018-05-14T06:33:23.353Z,26.07
2018-05-14T06:35:51.114Z,17.67
2018-05-14T06:38:19.281Z,24.90
2018-05-14T06:40:46.794Z,21.07
2018-05-14T06:43:14.302Z,17.77
2018-05-14T06:45:41.825Z,15.03
2018-05-14T06:48:09.336Z,12.33
2018-05-14T06:53:36.616Z,11.77
2018-05-14T06:56:04.164Z,11.13
2018-05-14T06:58:31.689Z,14.37
2018-05-14T07:00:59.193Z,14.23
2018-05-14T07:03:26.693Z,18.77
2018-05-14T07:05:55.099Z,13.23
2018-05-14T07:08:23.452Z,15.33
2018-05-14T07:10:50.968Z,17.10
2018-05-14T07:13:18.498Z,14.20
2018-05-14T07:15:46.025Z,15.87
2018-05-14T07:18:13.598Z,15.83
2018-05-14T07:20:41.880Z,20.60
2018-05-14T07:23:10.209Z,16.87
2018-05-14T07:25:37.765Z,15.60
2018-05-14T07:28:05.293Z,21.73
2018-05-14T07:30:32.792Z,18.70
2018-05-14T07:33:00.290Z,18.83
2018-05-14T07:35:28.611Z,19.13
2018-05-14T07:37:56.116Z,21.50
2018-05-14T07:40:24.454Z,22.53
2018-05-14T07:42:51.950Z,32.13
2018-05-14T07:45:19.515Z,21.80
2018-05-14T07:47:47.057Z,25.70
2018-05-14T07:50:14.650Z,31.50
2018-05-14T07:52:42.933Z,41.03
2018-05-14T07:55:10.433Z,24.93
2018-05-14T07:57:38.024Z,25.23
2018-05-14T08:00:05.561Z,33.47
2018-05-14T08:02:33.116Z,25.63
2018-05-14T08:05:00.660Z,25.13
2018-05-14T08:07:28.172Z,22.90
2018-05-14T08:09:56.461Z,22.57
2018-05-14T08:12:24.002Z,34.90
2018-05-14T08:14:51.563Z,21.23
2018-05-14T08:17:19.872Z,18.07
2018-05-14T08:19:47.406Z,20.43
2018-05-14T08:22:15.708Z,20.63
2018-05-14T08:24:43.292Z,22.40
2018-05-14T08:27:10.807Z,23.20
2018-05-14T08:29:38.340Z,27.17
2018-05-14T08:32:05.897Z,24.13
2018-05-14T08:34:33.438Z,25.87
2018-05-14T08:37:01.048Z,22.03
2018-05-14T08:39:28.627Z,22.07
2018-05-14T08:41:56.059Z,22.67
2018-05-14T08:44:23.585Z,25.40
2018-05-14T08:46:51.080Z,20.37
2018-05-14T08:49:18.620Z,21.43
2018-05-14T08:51:46.171Z,23.60
2018-05-14T08:54:13.743Z,21.20
2018-05-14T08:56:41.274Z,24.03
2018-05-14T08:59:08.808Z,25.47
2018-05-14T09:01:36.401Z,22.87
2018-05-14T09:04:03.970Z,24.53
2018-05-14T09:06:31.499Z,23.97
2018-05-14T09:08:59.054Z,24.33
2018-05-14T09:11:26.594Z,25.33
2018-05-14T09:13:54.177Z,24.97
2018-05-14T09:16:21.699Z,28.40
2018-05-14T09:18:49.235Z,28.70
2018-05-14T09:21:17.522Z,26.77
2018-05-14T09:23:45.077Z,28.10
2018-05-14T09:26:13.399Z,30.73
2018-05-14T09:28:40.907Z,28.80
2018-05-14T09:31:09.240Z,27.03
2018-05-14T09:33:37.341Z,24.87
2018-05-14T09:36:04.885Z,28.27
2018-05-14T09:38:32.484Z,29.10
2018-05-14T09:41:00.022Z,27.87
2018-05-14T09:43:28.333Z,32.73
2018-05-14T09:45:56.476Z,28.30
2018-05-14T09:48:24.761Z,30.60
2018-05-14T09:50:52.345Z,28.63
2018-05-14T09:53:19.864Z,28.50
2018-05-14T09:55:47.414Z,25.83
2018-05-14T09:58:14.975Z,28.00
2018-05-14T10:00:42.545Z,24.07
2018-05-14T10:03:10.100Z,24.90
2018-05-14T10:05:37.606Z,26.43
2018-05-14T10:08:05.137Z,27.33
2018-05-14T10:10:33.462Z,25.93
2018-05-14T10:13:01.094Z,29.57
2018-05-14T10:15:28.532Z,25.20
2018-05-14T10:17:56.825Z,24.23
2018-05-14T10:20:24.350Z,27.00
2018-05-14T10:22:52.606Z,26.50
2018-05-14T10:25:20.121Z,28.40
2018-05-14T10:27:47.652Z,27.90
2018-05-14T10:30:15.940Z,28.77
2018-05-14T10:32:43.484Z,27.07
2018-05-14T10:35:11.847Z,30.00
2018-05-14T10:37:39.337Z,32.20
2018-05-14T10:40:06.847Z,31.00
2018-05-14T10:42:34.404Z,31.17
2018-05-14T10:45:01.926Z,33.70
2018-05-14T10:47:29.415Z,28.50
2018-05-14T10:49:56.948Z,34.03
2018-05-14T10:52:24.462Z,28.93
2018-05-14T10:54:52.783Z,27.40
2018-05-14T10:57:20.313Z,34.50
2018-05-14T10:59:48.599Z,27.97
2018-05-14T11:02:16.129Z,30.47
2018-05-14T11:04:43.667Z,28.73
2018-05-14T11:07:11.193Z,30.83
2018-05-14T11:09:38.734Z,25.37
2018-05-14T11:12:06.260Z,29.70
2018-05-14T11:14:33.839Z,25.63
2018-05-14T11:17:01.387Z,26.47
2018-05-14T11:19:28.940Z,26.43
2018-05-14T11:21:56.477Z,27.57
2018-05-14T11:24:24.076Z,27.90
2018-05-14T11:26:51.538Z,30.00
2018-05-14T11:29:19.841Z,26.30
2018-05-14T11:31:47.436Z,29.40
2018-05-14T11:34:14.925Z,27.57
2018-05-14T11:36:43.203Z,28.40
2018-05-14T11:39:10.737Z,30.50
2018-05-14T11:41:38.272Z,27.53
2018-05-14T11:44:05.800Z,32.90
2018-05-14T11:58:16.407Z,40.03
2018-05-14T12:00:43.910Z,36.10
2018-05-14T12:03:11.597Z,41.03
2018-05-14T12:05:39.048Z,33.77
2018-05-14T12:08:06.585Z,35.60
2018-05-14T12:10:34.135Z,35.00
2018-05-14T12:13:01.668Z,35.00
2018-05-14T12:15:29.982Z,36.90
2018-05-14T12:17:57.541Z,29.87
2018-05-14T12:20:25.073Z,27.97
2018-05-14T12:22:53.438Z,30.33
2018-05-14T12:25:21.789Z,24.17
2018-05-14T12:27:49.314Z,24.80
2018-05-14T12:30:16.819Z,23.07
2018-05-14T12:32:44.373Z,31.27
2018-05-14T12:35:11.891Z,29.60
2018-05-14T12:37:39.527Z,26.10
2018-05-14T12:40:06.976Z,29.43
2018-05-14T12:42:35.291Z,28.40
2018-05-14T12:45:02.813Z,25.83
2018-05-14T12:47:31.130Z,27.90
2018-05-14T12:49:58.658Z,29.20
2018-05-14T12:52:26.226Z,27.73
2018-05-14T12:54:53.752Z,30.70
2018-05-14T12:57:21.306Z,32.93
2018-05-14T12:59:49.544Z,33.63
2018-05-14T13:02:17.078Z,37.63
2018-05-14T13:04:44.603Z,34.83
2018-05-14T13:07:12.124Z,37.93
2018-05-14T13:09:39.663Z,36.80
2018-05-14T13:12:07.212Z,38.30
2018-05-14T13:14:34.752Z,34.73
2018-05-14T13:17:02.255Z,36.13
2018-05-14T13:19:29.787Z,39.43
2018-05-14T13:21:57.294Z,39.53
2018-05-14T13:24:24.841Z,39.37
2018-05-14T13:26:52.358Z,44.30
2018-05-14T13:29:19.895Z,46.90
2018-05-14T13:31:48.224Z,42.17
2018-05-14T13:34:15.781Z,42.60
2018-05-14T13:36:43.290Z,41.90
2018-05-14T13:39:11.584Z,45.20
2018-05-14T13:41:41.460Z,45.30
2018-05-14T13:44:09.868Z,50.13
2018-05-14T13:46:37.297Z,48.00
2018-05-14T13:49:04.827Z,47.20
2018-05-14T13:51:32.369Z,52.27
2018-05-14T13:53:59.875Z,47.43
2018-05-14T13:56:27.449Z,53.30
2018-05-14T13:58:55.769Z,50.23
2018-05-14T14:01:23.351Z,47.90
2018-05-14T14:03:50.881Z,50.90
2018-05-14T14:06:18.440Z,43.87
2018-05-14T14:08:46.035Z,55.13
2018-05-14T14:11:13.580Z,52.63
2018-05-14T14:13:41.104Z,50.53
2018-05-14T14:16:08.619Z,56.60
2018-05-14T14:18:36.148Z,57.40
2018-05-14T14:21:03.699Z,58.13
2018-05-14T14:23:31.281Z,54.23
2018-05-14T14:25:58.732Z,50.67
2018-05-14T14:28:32.212Z,52.83
2018-05-14T14:30:59.742Z,51.37
2018-05-14T14:33:28.057Z,63.07
2018-05-14T14:35:55.633Z,59.40
2018-05-14T14:38:23.197Z,55.07
2018-05-14T14:40:50.726Z,55.20
2018-05-14T14:43:18.320Z,65.40
2018-05-14T14:45:45.851Z,59.83
2018-05-14T14:48:13.460Z,61.20
2018-05-14T14:50:41.019Z,58.73
2018-05-14T14:53:08.573Z,63.87
2018-05-14T14:55:36.174Z,61.77
2018-05-14T14:58:03.720Z,66.70
2018-05-14T15:00:32.185Z,63.63
2018-05-14T15:03:00.488Z,67.10
2018-05-14T15:05:28.006Z,67.10
2018-05-14T15:07:55.530Z,64.50
2018-05-14T15:10:23.034Z,64.20
2018-05-14T15:12:51.342Z,63.80
2018-05-14T15:15:18.868Z,69.50
2018-05-14T15:20:40.570Z,68.90
2018-05-14T15:23:08.091Z,65.73
2018-05-14T15:25:35.630Z,62.83
2018-05-14T15:28:03.942Z,65.00
2018-05-14T15:30:31.563Z,65.77
2018-05-14T15:32:59.841Z,68.00
2018-05-14T15:35:27.357Z,72.50
2018-05-14T15:37:54.854Z,78.53
2018-05-14T15:40:22.435Z,80.63
2018-05-14T15:42:50.026Z,87.13
2018-05-14T15:45:17.552Z,79.10
2018-05-14T15:47:45.081Z,82.23
2018-05-14T15:50:12.621Z,90.80
2018-05-14T15:52:40.105Z,81.77
2018-05-14T15:55:07.647Z,70.07
2018-05-14T15:57:35.143Z,79.03
2018-05-14T16:00:02.731Z,83.93
2018-05-14T16:02:30.261Z,89.27
2018-05-14T16:04:57.819Z,98.00
2018-05-14T16:07:26.166Z,94.37
2018-05-14T16:09:53.678Z,95.43
2018-05-14T16:12:21.222Z,89.40
2018-05-14T16:14:54.478Z,81.30
2018-05-14T16:17:22.038Z,99.40
2018-05-14T16:19:49.541Z,83.30
2018-05-14T16:22:17.076Z,79.63
2018-05-14T16:24:45.342Z,93.17
2018-05-14T16:27:12.870Z,117.23
2018-05-14T16:29:40.423Z,95.87
2018-05-14T16:32:08.008Z,99.47
2018-05-14T16:34:35.603Z,96.43
2018-05-14T16:37:05.057Z,106.80
2018-05-14T16:39:32.624Z,85.57
2018-05-14T16:42:00.303Z,87.83
2018-05-14T16:44:27.773Z,84.73
2018-05-14T16:46:56.138Z,82.80
2018-05-14T16:49:23.713Z,91.70
2018-05-14T16:51:52.000Z,98.90
2018-05-14T16:54:19.545Z,102.43
2018-05-14T16:56:47.062Z,103.83
2018-05-14T16:59:14.632Z,115.27
2018-05-14T17:01:42.167Z,118.30
2018-05-14T17:04:09.766Z,119.50
2018-05-14T17:06:37.336Z,109.17
2018-05-14T17:09:05.707Z,126.27
2018-05-14T17:11:33.288Z,129.53
2018-05-14T17:14:00.830Z,125.63
2018-05-14T17:16:29.166Z,140.27
2018-05-14T17:18:57.277Z,137.97
2018-05-14T17:21:25.602Z,160.40
2018-05-14T17:23:53.177Z,147.47
2018-05-14T17:26:20.748Z,218.70
2018-05-14T17:28:48.280Z,220.57
2018-05-14T17:31:15.857Z,163.67
2018-05-14T17:33:43.436Z,138.73
2018-05-14T17:36:11.025Z,149.37
2018-05-14T17:41:41.649Z,141.73
2018-05-14T17:44:09.209Z,211.37
2018-05-14T17:46:36.746Z,124.43
2018-05-14T17:49:05.330Z,218.87
2018-05-14T17:51:32.885Z,251.83
2018-05-14T17:54:00.419Z,152.93
2018-05-14T17:56:28.006Z,250.20
2018-05-14T17:58:55.611Z,203.73
2018-05-14T18:01:23.223Z,211.33
2018-05-14T18:03:50.751Z,173.60
2018-05-14T18:06:18.331Z,203.53
2018-05-14T18:08:57.340Z,261.13
2018-05-14T18:11:24.961Z,191.90
2018-05-14T18:13:52.561Z,142.60
2018-05-14T18:16:23.111Z,195.23
2018-05-14T18:18:50.928Z,156.03
2018-05-14T18:21:37.129Z,156.43
2018-05-14T18:24:05.480Z,151.17
2018-05-14T18:26:38.824Z,117.70
2018-05-14T18:29:27.727Z,148.70
2018-05-14T18:32:07.625Z,200.57
2018-05-14T18:37:36.582Z,139.83
2018-05-14T18:40:04.155Z,176.53
2018-05-14T18:42:31.719Z,121.23
2018-05-14T18:44:59.253Z,142.33
2018-05-14T18:47:26.879Z,141.53
2018-05-14T18:49:54.439Z,226.33
2018-05-14T18:52:21.971Z,198.17
2018-05-14T18:54:50.293Z,207.50
2018-05-14T18:57:17.874Z,331.67
2018-05-14T18:59:45.422Z,219.97
2018-05-14T19:02:12.972Z,190.30
2018-05-14T19:04:40.481Z,159.70
2018-05-14T19:07:08.034Z,157.00
2018-05-14T19:09:35.575Z,231.00
2018-05-14T19:12:03.083Z,244.13
2018-05-14T19:14:30.602Z,224.17
2018-05-14T19:17:03.888Z,184.67
2018-05-14T19:19:31.437Z,161.43
2018-05-14T19:22:24.698Z,149.70
2018-05-14T19:24:52.271Z,174.87
2018-05-14T19:27:19.894Z,180.87
2018-05-14T19:29:47.468Z,221.73
2018-05-14T19:32:14.993Z,251.07
2018-05-14T19:34:48.066Z,130.57
2018-05-14T19:37:16.364Z,133.67
2018-05-14T19:39:49.737Z,127.23
2018-05-14T19:42:18.039Z,144.03
2018-05-14T19:44:45.552Z,119.47
2018-05-14T19:47:13.127Z,130.40
2018-05-14T19:49:41.424Z,148.10
2018-05-14T19:52:09.028Z,146.27
2018-05-14T19:54:36.572Z,170.33
2018-05-14T19:57:04.162Z,147.50
2018-05-14T19:59:31.717Z,152.87
2018-05-14T20:01:59.289Z,161.33
2018-05-14T20:04:26.853Z,232.10
2018-05-14T20:06:54.462Z,462.70
2018-05-14T20:09:21.985Z,246.27
2018-05-14T20:11:50.328Z,311.43
2018-05-14T20:14:17.912Z,209.17
2018-05-14T20:16:46.211Z,159.93
2018-05-14T20:19:14.558Z,211.50
2018-05-14T20:21:42.106Z,216.30
2018-05-14T20:24:09.749Z,194.53
2018-05-14T20:26:37.341Z,177.73
2018-05-14T20:29:04.941Z,139.07
2018-05-14T20:31:32.490Z,182.17
2018-05-14T20:34:00.044Z,268.77
2018-05-14T20:36:27.581Z,230.00
2018-05-14T20:38:55.141Z,207.80
2018-05-14T20:41:23.453Z,273.97
2018-05-14T20:43:51.025Z,220.87
2018-05-14T20:46:18.546Z,393.90
2018-05-14T20:48:46.883Z,266.53
2018-05-14T20:51:14.488Z,203.07
2018-05-14T20:53:42.790Z,177.30
2018-05-14T20:56:10.353Z,115.77
2018-05-14T20:58:37.998Z,323.87
2018-05-14T21:01:05.578Z,107.57
2018-05-14T21:03:33.081Z,216.13
2018-05-14T21:06:00.617Z,358.73
2018-05-14T21:08:28.157Z,165.93
2018-05-14T21:10:55.702Z,176.27
2018-05-14T21:13:23.285Z,119.87
2018-05-14T21:15:50.838Z,184.77
2018-05-14T21:18:18.349Z,195.43
2018-05-14T21:20:46.730Z,185.73
2018-05-14T21:23:14.286Z,197.93
2018-05-14T21:25:42.590Z,236.60
2018-05-14T21:28:10.179Z,213.40
2018-05-14T21:30:37.772Z,215.10
2018-05-14T21:33:05.322Z,251.80
2018-05-14T21:35:32.893Z,215.77
2018-05-14T21:38:00.447Z,336.67
2018-05-14T21:40:28.026Z,243.30
2018-05-14T21:42:56.368Z,229.83
2018-05-14T21:45:23.906Z,235.43
2018-05-14T21:47:51.473Z,369.23
2018-05-14T21:50:19.107Z,327.30
2018-05-14T21:52:46.618Z,261.43
2018-05-14T21:55:15.102Z,257.30
2018-05-14T21:57:42.696Z,254.77
2018-05-14T22:00:11.214Z,256.80
2018-05-14T22:02:38.863Z,258.23
2018-05-14T22:05:07.195Z,299.53
2018-05-14T22:07:34.814Z,286.10
2018-05-14T22:10:03.485Z,311.13
2018-05-14T22:12:31.070Z,305.00
2018-05-14T22:14:58.634Z,313.93
2018-05-14T22:17:26.187Z,249.33
2018-05-14T22:19:53.725Z,388.30
2018-05-14T22:22:21.281Z,472.53
2018-05-14T22:24:48.778Z,287.50
2018-05-14T22:27:16.315Z,257.37
2018-05-14T22:29:43.855Z,215.03
2018-05-14T22:32:11.407Z,192.43
2018-05-14T22:34:38.937Z,251.10
2018-05-14T22:37:07.256Z,221.07
2018-05-14T22:39:34.842Z,243.00
2018-05-14T22:42:02.385Z,251.57
2018-05-14T22:44:29.914Z,178.43
2018-05-14T22:46:57.493Z,217.33
2018-05-14T22:49:25.074Z,212.27
2018-05-14T22:51:52.630Z,232.13
2018-05-14T22:54:42.002Z,237.07
2018-05-14T22:57:09.552Z,290.20
2018-05-14T22:59:37.122Z,381.53
2018-05-14T23:02:04.674Z,286.60
2018-05-14T23:04:32.195Z,314.43
2018-05-14T23:06:59.738Z,464.53
2018-05-14T23:09:27.285Z,522.67
2018-05-14T23:11:54.845Z,374.60
2018-05-14T23:14:23.159Z,549.57
2018-05-14T23:16:50.735Z,296.27
2018-05-14T23:19:18.244Z,288.93
2018-05-14T23:21:46.554Z,447.00
2018-05-14T23:24:14.111Z,377.70
2018-05-14T23:26:41.640Z,338.30
2018-05-14T23:29:09.942Z,410.00
2018-05-14T23:31:37.510Z,304.50
2018-05-14T23:34:05.045Z,333.23
2018-05-14T23:36:32.564Z,332.00
2018-05-14T23:39:00.146Z,332.03
2018-05-14T23:41:28.484Z,203.43
2018-05-14T23:43:56.047Z,168.57
2018-05-14T23:46:23.596Z,157.53
2018-05-14T23:48:51.224Z,181.73
2018-05-14T23:51:18.783Z,161.07
2018-05-14T23:53:46.344Z,123.63
2018-05-14T23:56:13.874Z,144.53
2018-05-14T23:58:41.429Z,145.43
